sensor_id;sensor_type;location;lat;lon;timestamp;P1;durP1;ratioP1;P2;durP2;ratioP2
21326;SDS011;10822;51.532;6.770;2023-03-11T00:01:24;3.88;;;1.40;;
21326;SDS011;10822;51.532;6.770;2023-03-11T00:03:50;2.10;;;1.30;;
21326;SDS011;10822;51.532;6.770;2023-03-11T00:06:16;3.38;;;1.48;;
21326;SDS011;10822;51.532;6.770;2023-03-11T00:08:42;2.85;;;1.40;;
21326;SDS011;10822;51.532;6.770;2023-03-11T00:11:08;3.85;;;1.73;;
21326;SDS011;10822;51.532;6.770;2023-03-11T00:13:34;4.30;;;1.40;;
21326;SDS011;10822;51.532;6.770;2023-03-11T00:16:00;4.88;;;1.85;;
21326;SDS011;10822;51.532;6.770;2023-03-11T00:18:27;5.30;;;1.80;;
21326;SDS011;10822;51.532;6.770;2023-03-11T00:20:55;2.92;;;1.42;;
21326;SDS011;10822;51.532;6.770;2023-03-11T00:23:21;4.35;;;1.73;;
21326;SDS011;10822;51.532;6.770;2023-03-11T00:25:47;3.53;;;1.40;;
21326;SDS011;10822;51.532;6.770;2023-03-11T00:28:13;2.50;;;1.35;;
21326;SDS011;10822;51.532;6.770;2023-03-11T00:30:40;3.42;;;1.20;;
21326;SDS011;10822;51.532;6.770;2023-03-11T00:33:07;3.90;;;1.42;;
21326;SDS011;10822;51.532;6.770;2023-03-11T00:35:34;3.60;;;1.35;;
21326;SDS011;10822;51.532;6.770;2023-03-11T00:38:01;4.20;;;1.10;;
21326;SDS011;10822;51.532;6.770;2023-03-11T00:40:28;2.15;;;1.30;;
21326;SDS011;10822;51.532;6.770;2023-03-11T00:42:54;4.68;;;1.77;;
21326;SDS011;10822;51.532;6.770;2023-03-11T00:45:20;3.92;;;1.48;;
21326;SDS011;10822;51.532;6.770;2023-03-11T00:47:46;4.13;;;1.63;;
21326;SDS011;10822;51.532;6.770;2023-03-11T00:50:14;4.50;;;1.40;;
21326;SDS011;10822;51.532;6.770;2023-03-11T00:52:41;4.78;;;1.45;;
21326;SDS011;10822;51.532;6.770;2023-03-11T00:55:09;7.80;;;1.75;;
21326;SDS011;10822;51.532;6.770;2023-03-11T00:57:35;2.70;;;1.50;;
21326;SDS011;10822;51.532;6.770;2023-03-11T01:00:01;8.57;;;1.88;;
21326;SDS011;10822;51.532;6.770;2023-03-11T01:02:28;5.97;;;2.03;;
21326;SDS011;10822;51.532;6.770;2023-03-11T01:04:54;5.45;;;2.08;;
21326;SDS011;10822;51.532;6.770;2023-03-11T01:07:20;3.88;;;1.50;;
21326;SDS011;10822;51.532;6.770;2023-03-11T01:09:46;6.00;;;1.70;;
21326;SDS011;10822;51.532;6.770;2023-03-11T01:12:12;7.85;;;1.63;;
21326;SDS011;10822;51.532;6.770;2023-03-11T01:14:38;6.00;;;1.25;;
21326;SDS011;10822;51.532;6.770;2023-03-11T01:17:04;6.25;;;1.25;;
21326;SDS011;10822;51.532;6.770;2023-03-11T01:19:30;3.53;;;1.30;;
21326;SDS011;10822;51.532;6.770;2023-03-11T01:21:56;4.57;;;1.33;;
21326;SDS011;10822;51.532;6.770;2023-03-11T01:24:22;2.38;;;0.98;;
21326;SDS011;10822;51.532;6.770;2023-03-11T01:26:48;1.63;;;1.00;;
21326;SDS011;10822;51.532;6.770;2023-03-11T01:29:14;3.50;;;1.00;;
21326;SDS011;10822;51.532;6.770;2023-03-11T01:31:40;5.15;;;1.30;;
21326;SDS011;10822;51.532;6.770;2023-03-11T01:34:06;7.38;;;1.50;;
21326;SDS011;10822;51.532;6.770;2023-03-11T01:36:32;4.60;;;1.30;;
21326;SDS011;10822;51.532;6.770;2023-03-11T01:38:58;6.82;;;1.92;;
21326;SDS011;10822;51.532;6.770;2023-03-11T01:41:24;6.65;;;1.60;;
21326;SDS011;10822;51.532;6.770;2023-03-11T01:43:51;6.10;;;1.60;;
21326;SDS011;10822;51.532;6.770;2023-03-11T01:46:29;4.88;;;1.40;;
21326;SDS011;10822;51.532;6.770;2023-03-11T01:48:56;5.65;;;1.55;;
21326;SDS011;10822;51.532;6.770;2023-03-11T01:51:30;4.28;;;1.80;;
21326;SDS011;10822;51.532;6.770;2023-03-11T01:53:58;8.43;;;1.52;;
21326;SDS011;10822;51.532;6.770;2023-03-11T01:56:25;4.90;;;1.35;;
21326;SDS011;10822;51.532;6.770;2023-03-11T01:58:52;4.68;;;1.45;;
21326;SDS011;10822;51.532;6.770;2023-03-11T02:01:19;4.63;;;1.70;;
21326;SDS011;10822;51.532;6.770;2023-03-11T02:03:45;3.17;;;1.25;;
21326;SDS011;10822;51.532;6.770;2023-03-11T02:06:13;3.22;;;1.50;;
21326;SDS011;10822;51.532;6.770;2023-03-11T02:08:41;6.68;;;1.98;;
21326;SDS011;10822;51.532;6.770;2023-03-11T02:11:09;4.22;;;1.95;;
21326;SDS011;10822;51.532;6.770;2023-03-11T02:13:35;7.57;;;2.03;;
21326;SDS011;10822;51.532;6.770;2023-03-11T02:16:02;6.03;;;2.10;;
21326;SDS011;10822;51.532;6.770;2023-03-11T02:18:28;11.35;;;2.40;;
21326;SDS011;10822;51.532;6.770;2023-03-11T02:21:02;3.90;;;1.95;;
21326;SDS011;10822;51.532;6.770;2023-03-11T02:23:36;4.78;;;1.98;;
21326;SDS011;10822;51.532;6.770;2023-03-11T02:26:21;9.20;;;2.47;;
21326;SDS011;10822;51.532;6.770;2023-03-11T02:28:48;6.53;;;1.92;;
21326;SDS011;10822;51.532;6.770;2023-03-11T02:31:15;6.25;;;2.15;;
21326;SDS011;10822;51.532;6.770;2023-03-11T02:33:41;9.02;;;2.42;;
21326;SDS011;10822;51.532;6.770;2023-03-11T02:36:28;8.85;;;2.40;;
21326;SDS011;10822;51.532;6.770;2023-03-11T02:38:54;4.85;;;1.60;;
21326;SDS011;10822;51.532;6.770;2023-03-11T02:41:20;5.25;;;1.50;;
21326;SDS011;10822;51.532;6.770;2023-03-11T02:43:46;8.50;;;1.88;;
21326;SDS011;10822;51.532;6.770;2023-03-11T02:46:13;7.70;;;1.80;;
21326;SDS011;10822;51.532;6.770;2023-03-11T02:48:39;6.38;;;2.30;;
21326;SDS011;10822;51.532;6.770;2023-03-11T02:51:05;8.30;;;2.83;;
21326;SDS011;10822;51.532;6.770;2023-03-11T02:53:33;7.57;;;2.40;;
21326;SDS011;10822;51.532;6.770;2023-03-11T02:56:00;7.93;;;2.70;;
21326;SDS011;10822;51.532;6.770;2023-03-11T02:58:26;4.90;;;2.08;;
21326;SDS011;10822;51.532;6.770;2023-03-11T03:00:52;11.75;;;2.00;;
21326;SDS011;10822;51.532;6.770;2023-03-11T03:03:18;7.82;;;1.92;;
21326;SDS011;10822;51.532;6.770;2023-03-11T03:05:44;6.88;;;2.25;;
21326;SDS011;10822;51.532;6.770;2023-03-11T03:08:10;6.50;;;1.95;;
21326;SDS011;10822;51.532;6.770;2023-03-11T03:10:36;5.35;;;2.15;;
21326;SDS011;10822;51.532;6.770;2023-03-11T03:13:02;11.65;;;3.30;;
21326;SDS011;10822;51.532;6.770;2023-03-11T03:15:28;11.02;;;3.05;;
21326;SDS011;10822;51.532;6.770;2023-03-11T03:17:54;4.85;;;2.15;;
21326;SDS011;10822;51.532;6.770;2023-03-11T03:20:20;6.75;;;2.20;;
21326;SDS011;10822;51.532;6.770;2023-03-11T03:22:46;5.75;;;2.22;;
21326;SDS011;10822;51.532;6.770;2023-03-11T03:25:13;7.40;;;2.13;;
21326;SDS011;10822;51.532;6.770;2023-03-11T03:27:39;8.80;;;2.88;;
21326;SDS011;10822;51.532;6.770;2023-03-11T03:30:05;9.65;;;2.55;;
21326;SDS011;10822;51.532;6.770;2023-03-11T03:32:32;7.07;;;2.25;;
21326;SDS011;10822;51.532;6.770;2023-03-11T03:34:58;8.50;;;2.35;;
21326;SDS011;10822;51.532;6.770;2023-03-11T03:37:24;7.68;;;1.70;;
21326;SDS011;10822;51.532;6.770;2023-03-11T03:39:51;7.93;;;1.63;;
21326;SDS011;10822;51.532;6.770;2023-03-11T03:42:17;9.43;;;2.42;;
21326;SDS011;10822;51.532;6.770;2023-03-11T03:44:43;6.80;;;1.85;;
21326;SDS011;10822;51.532;6.770;2023-03-11T03:47:09;7.97;;;1.98;;
21326;SDS011;10822;51.532;6.770;2023-03-11T03:49:36;8.88;;;3.20;;
21326;SDS011;10822;51.532;6.770;2023-03-11T03:52:03;8.18;;;2.25;;
21326;SDS011;10822;51.532;6.770;2023-03-11T03:54:29;8.80;;;2.90;;
21326;SDS011;10822;51.532;6.770;2023-03-11T03:56:56;4.10;;;1.90;;
21326;SDS011;10822;51.532;6.770;2023-03-11T03:59:22;5.45;;;1.52;;
21326;SDS011;10822;51.532;6.770;2023-03-11T04:01:48;7.68;;;1.92;;
21326;SDS011;10822;51.532;6.770;2023-03-11T04:04:14;3.42;;;1.50;;
21326;SDS011;10822;51.532;6.770;2023-03-11T04:06:40;7.90;;;1.98;;
21326;SDS011;10822;51.532;6.770;2023-03-11T04:09:08;4.20;;;1.70;;
21326;SDS011;10822;51.532;6.770;2023-03-11T04:11:34;5.30;;;1.70;;
21326;SDS011;10822;51.532;6.770;2023-03-11T04:14:00;7.10;;;2.25;;
21326;SDS011;10822;51.532;6.770;2023-03-11T04:16:26;6.55;;;2.30;;
21326;SDS011;10822;51.532;6.770;2023-03-11T04:18:52;9.63;;;2.30;;
21326;SDS011;10822;51.532;6.770;2023-03-11T04:21:18;6.15;;;1.60;;
21326;SDS011;10822;51.532;6.770;2023-03-11T04:23:44;7.97;;;2.53;;
21326;SDS011;10822;51.532;6.770;2023-03-11T04:26:11;5.68;;;1.92;;
21326;SDS011;10822;51.532;6.770;2023-03-11T04:28:37;9.15;;;2.10;;
21326;SDS011;10822;51.532;6.770;2023-03-11T04:31:03;7.25;;;2.60;;
21326;SDS011;10822;51.532;6.770;2023-03-11T04:33:29;8.90;;;2.50;;
21326;SDS011;10822;51.532;6.770;2023-03-11T04:35:55;5.93;;;1.92;;
21326;SDS011;10822;51.532;6.770;2023-03-11T04:38:21;9.05;;;1.75;;
21326;SDS011;10822;51.532;6.770;2023-03-11T04:40:47;3.28;;;1.52;;
21326;SDS011;10822;51.532;6.770;2023-03-11T04:43:13;6.13;;;1.55;;
21326;SDS011;10822;51.532;6.770;2023-03-11T04:45:39;5.28;;;1.65;;
21326;SDS011;10822;51.532;6.770;2023-03-11T04:48:06;6.25;;;1.85;;
21326;SDS011;10822;51.532;6.770;2023-03-11T04:50:32;7.47;;;2.10;;
21326;SDS011;10822;51.532;6.770;2023-03-11T04:52:59;6.55;;;1.95;;
21326;SDS011;10822;51.532;6.770;2023-03-11T04:55:24;5.30;;;1.90;;
21326;SDS011;10822;51.532;6.770;2023-03-11T04:57:50;5.70;;;1.50;;
21326;SDS011;10822;51.532;6.770;2023-03-11T05:00:17;7.78;;;2.20;;
21326;SDS011;10822;51.532;6.770;2023-03-11T05:02:48;8.68;;;2.10;;
21326;SDS011;10822;51.532;6.770;2023-03-11T05:05:14;4.28;;;1.50;;
21326;SDS011;10822;51.532;6.770;2023-03-11T05:07:40;7.93;;;2.10;;
21326;SDS011;10822;51.532;6.770;2023-03-11T05:10:06;7.45;;;1.70;;
21326;SDS011;10822;51.532;6.770;2023-03-11T05:12:33;6.53;;;1.73;;
21326;SDS011;10822;51.532;6.770;2023-03-11T05:14:59;3.33;;;1.27;;
21326;SDS011;10822;51.532;6.770;2023-03-11T05:17:24;8.15;;;1.40;;
21326;SDS011;10822;51.532;6.770;2023-03-11T05:19:51;4.30;;;1.30;;
21326;SDS011;10822;51.532;6.770;2023-03-11T05:22:20;8.38;;;1.90;;
21326;SDS011;10822;51.532;6.770;2023-03-11T05:24:46;6.28;;;1.65;;
21326;SDS011;10822;51.532;6.770;2023-03-11T05:27:13;6.43;;;1.65;;
21326;SDS011;10822;51.532;6.770;2023-03-11T05:29:42;8.38;;;2.03;;
21326;SDS011;10822;51.532;6.770;2023-03-11T05:32:08;8.20;;;1.92;;
21326;SDS011;10822;51.532;6.770;2023-03-11T05:34:34;6.78;;;1.70;;
21326;SDS011;10822;51.532;6.770;2023-03-11T05:37:00;6.72;;;1.88;;
21326;SDS011;10822;51.532;6.770;2023-03-11T05:39:26;8.80;;;1.70;;
21326;SDS011;10822;51.532;6.770;2023-03-11T05:41:52;4.72;;;1.42;;
21326;SDS011;10822;51.532;6.770;2023-03-11T05:44:20;5.85;;;1.65;;
21326;SDS011;10822;51.532;6.770;2023-03-11T05:46:46;5.60;;;1.60;;
21326;SDS011;10822;51.532;6.770;2023-03-11T05:49:12;5.93;;;1.85;;
21326;SDS011;10822;51.532;6.770;2023-03-11T05:51:38;6.53;;;1.70;;
21326;SDS011;10822;51.532;6.770;2023-03-11T05:54:04;4.32;;;1.65;;
21326;SDS011;10822;51.532;6.770;2023-03-11T05:56:38;5.38;;;1.85;;
21326;SDS011;10822;51.532;6.770;2023-03-11T05:59:04;7.53;;;2.15;;
21326;SDS011;10822;51.532;6.770;2023-03-11T06:01:30;7.32;;;2.53;;
21326;SDS011;10822;51.532;6.770;2023-03-11T06:03:56;8.68;;;3.13;;
21326;SDS011;10822;51.532;6.770;2023-03-11T06:06:22;6.07;;;2.92;;
21326;SDS011;10822;51.532;6.770;2023-03-11T06:08:48;5.68;;;2.13;;
21326;SDS011;10822;51.532;6.770;2023-03-11T06:11:14;9.90;;;3.80;;
21326;SDS011;10822;51.532;6.770;2023-03-11T06:13:41;9.18;;;4.55;;
21326;SDS011;10822;51.532;6.770;2023-03-11T06:16:07;13.77;;;4.43;;
21326;SDS011;10822;51.532;6.770;2023-03-11T06:18:33;12.30;;;4.70;;
21326;SDS011;10822;51.532;6.770;2023-03-11T06:20:59;9.60;;;3.92;;
21326;SDS011;10822;51.532;6.770;2023-03-11T06:23:26;8.68;;;2.88;;
21326;SDS011;10822;51.532;6.770;2023-03-11T06:25:55;8.27;;;2.15;;
21326;SDS011;10822;51.532;6.770;2023-03-11T06:28:21;8.77;;;2.33;;
21326;SDS011;10822;51.532;6.770;2023-03-11T06:30:47;5.70;;;2.40;;
21326;SDS011;10822;51.532;6.770;2023-03-11T06:33:13;8.02;;;1.98;;
21326;SDS011;10822;51.532;6.770;2023-03-11T06:35:40;8.32;;;2.08;;
21326;SDS011;10822;51.532;6.770;2023-03-11T06:38:05;5.00;;;2.40;;
21326;SDS011;10822;51.532;6.770;2023-03-11T06:40:31;10.15;;;3.90;;
21326;SDS011;10822;51.532;6.770;2023-03-11T06:42:57;13.65;;;5.32;;
21326;SDS011;10822;51.532;6.770;2023-03-11T06:45:23;12.40;;;4.63;;
21326;SDS011;10822;51.532;6.770;2023-03-11T06:47:49;10.50;;;4.82;;
21326;SDS011;10822;51.532;6.770;2023-03-11T06:50:15;19.42;;;7.80;;
21326;SDS011;10822;51.532;6.770;2023-03-11T06:52:41;30.17;;;10.65;;
21326;SDS011;10822;51.532;6.770;2023-03-11T06:55:07;26.92;;;12.20;;
21326;SDS011;10822;51.532;6.770;2023-03-11T06:57:34;30.42;;;10.95;;
21326;SDS011;10822;51.532;6.770;2023-03-11T07:00:00;30.05;;;10.65;;
21326;SDS011;10822;51.532;6.770;2023-03-11T07:02:25;27.95;;;10.30;;
21326;SDS011;10822;51.532;6.770;2023-03-11T07:04:51;32.90;;;11.65;;
21326;SDS011;10822;51.532;6.770;2023-03-11T07:07:17;32.90;;;11.55;;
21326;SDS011;10822;51.532;6.770;2023-03-11T07:09:45;28.83;;;11.13;;
21326;SDS011;10822;51.532;6.770;2023-03-11T07:12:11;21.10;;;8.25;;
21326;SDS011;10822;51.532;6.770;2023-03-11T07:14:38;29.15;;;11.43;;
21326;SDS011;10822;51.532;6.770;2023-03-11T07:17:04;24.10;;;8.55;;
21326;SDS011;10822;51.532;6.770;2023-03-11T07:19:30;22.25;;;9.43;;
21326;SDS011;10822;51.532;6.770;2023-03-11T07:21:56;25.75;;;9.13;;
21326;SDS011;10822;51.532;6.770;2023-03-11T07:24:22;9.63;;;4.53;;
21326;SDS011;10822;51.532;6.770;2023-03-11T07:26:48;12.32;;;4.88;;
21326;SDS011;10822;51.532;6.770;2023-03-11T07:29:14;7.50;;;3.30;;
21326;SDS011;10822;51.532;6.770;2023-03-11T07:31:40;11.00;;;4.57;;
21326;SDS011;10822;51.532;6.770;2023-03-11T07:34:06;20.92;;;7.15;;
21326;SDS011;10822;51.532;6.770;2023-03-11T07:36:35;7.95;;;3.30;;
21326;SDS011;10822;51.532;6.770;2023-03-11T07:39:03;17.00;;;5.70;;
21326;SDS011;10822;51.532;6.770;2023-03-11T07:41:33;9.50;;;3.95;;
21326;SDS011;10822;51.532;6.770;2023-03-11T07:43:59;4.75;;;2.53;;
21326;SDS011;10822;51.532;6.770;2023-03-11T07:46:27;7.07;;;2.40;;
21326;SDS011;10822;51.532;6.770;2023-03-11T07:48:53;6.65;;;2.00;;
21326;SDS011;10822;51.532;6.770;2023-03-11T07:51:20;8.13;;;2.00;;
21326;SDS011;10822;51.532;6.770;2023-03-11T07:53:46;5.50;;;1.50;;
21326;SDS011;10822;51.532;6.770;2023-03-11T07:56:13;3.88;;;1.73;;
21326;SDS011;10822;51.532;6.770;2023-03-11T07:58:40;5.13;;;1.75;;
21326;SDS011;10822;51.532;6.770;2023-03-11T08:01:07;5.82;;;1.83;;
21326;SDS011;10822;51.532;6.770;2023-03-11T08:03:34;2.25;;;1.20;;
21326;SDS011;10822;51.532;6.770;2023-03-11T08:06:00;3.75;;;1.38;;
21326;SDS011;10822;51.532;6.770;2023-03-11T08:08:26;5.72;;;1.52;;
21326;SDS011;10822;51.532;6.770;2023-03-11T08:10:52;5.10;;;1.58;;
21326;SDS011;10822;51.532;6.770;2023-03-11T08:13:18;3.40;;;1.30;;
21326;SDS011;10822;51.532;6.770;2023-03-11T08:15:44;7.70;;;1.77;;
21326;SDS011;10822;51.532;6.770;2023-03-11T08:18:10;5.78;;;1.70;;
21326;SDS011;10822;51.532;6.770;2023-03-11T08:20:37;5.50;;;1.63;;
21326;SDS011;10822;51.532;6.770;2023-03-11T08:23:03;3.05;;;1.00;;
21326;SDS011;10822;51.532;6.770;2023-03-11T08:25:29;5.97;;;1.65;;
21326;SDS011;10822;51.532;6.770;2023-03-11T08:27:55;3.80;;;1.33;;
21326;SDS011;10822;51.532;6.770;2023-03-11T08:30:21;5.07;;;1.35;;
21326;SDS011;10822;51.532;6.770;2023-03-11T08:32:47;4.47;;;1.52;;
21326;SDS011;10822;51.532;6.770;2023-03-11T08:35:13;3.15;;;1.15;;
21326;SDS011;10822;51.532;6.770;2023-03-11T08:37:39;5.63;;;1.63;;
21326;SDS011;10822;51.532;6.770;2023-03-11T08:40:06;4.18;;;1.73;;
21326;SDS011;10822;51.532;6.770;2023-03-11T08:42:34;3.60;;;1.70;;
21326;SDS011;10822;51.532;6.770;2023-03-11T08:45:00;3.35;;;1.55;;
21326;SDS011;10822;51.532;6.770;2023-03-11T08:47:26;5.90;;;1.40;;
21326;SDS011;10822;51.532;6.770;2023-03-11T08:49:52;2.95;;;0.95;;
21326;SDS011;10822;51.532;6.770;2023-03-11T08:52:18;3.63;;;1.63;;
21326;SDS011;10822;51.532;6.770;2023-03-11T08:54:44;4.65;;;1.40;;
21326;SDS011;10822;51.532;6.770;2023-03-11T08:57:10;3.45;;;1.05;;
21326;SDS011;10822;51.532;6.770;2023-03-11T08:59:35;2.70;;;1.00;;
21326;SDS011;10822;51.532;6.770;2023-03-11T09:02:01;3.42;;;1.20;;
21326;SDS011;10822;51.532;6.770;2023-03-11T09:04:27;6.07;;;1.10;;
21326;SDS011;10822;51.532;6.770;2023-03-11T09:06:53;3.85;;;1.15;;
21326;SDS011;10822;51.532;6.770;2023-03-11T09:09:19;1.48;;;0.80;;
21326;SDS011;10822;51.532;6.770;2023-03-11T09:11:46;5.40;;;1.40;;
21326;SDS011;10822;51.532;6.770;2023-03-11T09:14:12;4.03;;;1.10;;
21326;SDS011;10822;51.532;6.770;2023-03-11T09:16:38;5.28;;;1.50;;
21326;SDS011;10822;51.532;6.770;2023-03-11T09:19:05;1.73;;;0.85;;
21326;SDS011;10822;51.532;6.770;2023-03-11T09:21:32;2.60;;;1.08;;
21326;SDS011;10822;51.532;6.770;2023-03-11T09:23:58;2.30;;;0.90;;
21326;SDS011;10822;51.532;6.770;2023-03-11T09:26:24;5.03;;;1.02;;
21326;SDS011;10822;51.532;6.770;2023-03-11T09:28:50;1.42;;;1.00;;
21326;SDS011;10822;51.532;6.770;2023-03-11T09:31:16;2.08;;;1.08;;
21326;SDS011;10822;51.532;6.770;2023-03-11T09:33:43;3.83;;;0.93;;
21326;SDS011;10822;51.532;6.770;2023-03-11T09:36:11;7.60;;;2.15;;
21326;SDS011;10822;51.532;6.770;2023-03-11T09:38:37;3.17;;;0.80;;
21326;SDS011;10822;51.532;6.770;2023-03-11T09:48:42;3.78;;;1.20;;
21326;SDS011;10822;51.532;6.770;2023-03-11T09:51:11;2.08;;;0.90;;
21326;SDS011;10822;51.532;6.770;2023-03-11T09:53:41;1.70;;;0.70;;
21326;SDS011;10822;51.532;6.770;2023-03-11T09:56:12;0.90;;;0.60;;
21326;SDS011;10822;51.532;6.770;2023-03-11T09:58:40;3.00;;;0.80;;
21326;SDS011;10822;51.532;6.770;2023-03-11T10:01:13;4.18;;;0.65;;
21326;SDS011;10822;51.532;6.770;2023-03-11T10:03:40;1.52;;;0.80;;
21326;SDS011;10822;51.532;6.770;2023-03-11T10:11:15;3.97;;;1.20;;
21326;SDS011;10822;51.532;6.770;2023-03-11T10:13:48;4.38;;;1.27;;
21326;SDS011;10822;51.532;6.770;2023-03-11T10:16:23;2.42;;;0.80;;
21326;SDS011;10822;51.532;6.770;2023-03-11T10:23:55;6.22;;;2.50;;
21326;SDS011;10822;51.532;6.770;2023-03-11T10:26:46;9.35;;;2.67;;
21326;SDS011;10822;51.532;6.770;2023-03-11T10:29:26;3.03;;;1.15;;
21326;SDS011;10822;51.532;6.770;2023-03-11T10:31:56;7.72;;;3.08;;
21326;SDS011;10822;51.532;6.770;2023-03-11T10:34:29;7.50;;;3.30;;
21326;SDS011;10822;51.532;6.770;2023-03-11T10:37:09;4.55;;;1.15;;
21326;SDS011;10822;51.532;6.770;2023-03-11T10:39:36;3.25;;;1.40;;
21326;SDS011;10822;51.532;6.770;2023-03-11T10:42:04;4.60;;;1.88;;
21326;SDS011;10822;51.532;6.770;2023-03-11T10:46:56;5.70;;;2.40;;
21326;SDS011;10822;51.532;6.770;2023-03-11T10:49:22;3.00;;;1.20;;
21326;SDS011;10822;51.532;6.770;2023-03-11T10:51:49;4.70;;;1.80;;
21326;SDS011;10822;51.532;6.770;2023-03-11T10:54:20;4.97;;;1.65;;
21326;SDS011;10822;51.532;6.770;2023-03-11T10:56:49;5.03;;;1.85;;
21326;SDS011;10822;51.532;6.770;2023-03-11T10:59:23;4.57;;;1.70;;
21326;SDS011;10822;51.532;6.770;2023-03-11T11:01:59;2.92;;;0.90;;
21326;SDS011;10822;51.532;6.770;2023-03-11T11:04:27;4.38;;;1.67;;
21326;SDS011;10822;51.532;6.770;2023-03-11T11:06:54;4.13;;;1.30;;
21326;SDS011;10822;51.532;6.770;2023-03-11T11:09:20;4.13;;;1.30;;
21326;SDS011;10822;51.532;6.770;2023-03-11T11:12:11;8.75;;;2.38;;
21326;SDS011;10822;51.532;6.770;2023-03-11T11:14:48;3.20;;;1.23;;
21326;SDS011;10822;51.532;6.770;2023-03-11T11:17:31;2.40;;;0.77;;
21326;SDS011;10822;51.532;6.770;2023-03-11T11:19:58;4.70;;;1.63;;
21326;SDS011;10822;51.532;6.770;2023-03-11T11:22:28;5.70;;;1.13;;
21326;SDS011;10822;51.532;6.770;2023-03-11T11:24:56;4.78;;;1.10;;
21326;SDS011;10822;51.532;6.770;2023-03-11T11:27:23;3.03;;;0.70;;
21326;SDS011;10822;51.532;6.770;2023-03-11T11:30:12;4.07;;;0.80;;
21326;SDS011;10822;51.532;6.770;2023-03-11T11:32:38;2.22;;;0.73;;
21326;SDS011;10822;51.532;6.770;2023-03-11T11:35:05;5.13;;;1.23;;
21326;SDS011;10822;51.532;6.770;2023-03-11T11:37:33;1.67;;;0.80;;
21326;SDS011;10822;51.532;6.770;2023-03-11T11:42:35;1.05;;;0.50;;
21326;SDS011;10822;51.532;6.770;2023-03-11T11:45:09;4.82;;;0.90;;
21326;SDS011;10822;51.532;6.770;2023-03-11T11:47:38;4.50;;;2.05;;
21326;SDS011;10822;51.532;6.770;2023-03-11T11:50:05;3.92;;;1.40;;
21326;SDS011;10822;51.532;6.770;2023-03-11T11:55:12;3.35;;;1.30;;
21326;SDS011;10822;51.532;6.770;2023-03-11T11:57:41;2.90;;;0.80;;
21326;SDS011;10822;51.532;6.770;2023-03-11T12:03:02;2.45;;;0.57;;
21326;SDS011;10822;51.532;6.770;2023-03-11T12:05:31;2.15;;;0.63;;
21326;SDS011;10822;51.532;6.770;2023-03-11T12:08:19;6.13;;;2.13;;
21326;SDS011;10822;51.532;6.770;2023-03-11T12:16:19;5.47;;;1.33;;
21326;SDS011;10822;51.532;6.770;2023-03-11T12:18:50;2.58;;;0.82;;
21326;SDS011;10822;51.532;6.770;2023-03-11T12:24:07;4.40;;;1.15;;
21326;SDS011;10822;51.532;6.770;2023-03-11T12:26:36;4.10;;;1.60;;
21326;SDS011;10822;51.532;6.770;2023-03-11T12:29:07;2.58;;;1.15;;
21326;SDS011;10822;51.532;6.770;2023-03-11T12:31:36;3.67;;;0.80;;
21326;SDS011;10822;51.532;6.770;2023-03-11T12:34:04;3.47;;;1.30;;
21326;SDS011;10822;51.532;6.770;2023-03-11T12:36:35;2.58;;;0.90;;
21326;SDS011;10822;51.532;6.770;2023-03-11T12:39:06;3.28;;;0.73;;
21326;SDS011;10822;51.532;6.770;2023-03-11T12:41:36;3.38;;;1.02;;
21326;SDS011;10822;51.532;6.770;2023-03-11T12:44:23;2.92;;;0.95;;
21326;SDS011;10822;51.532;6.770;2023-03-11T12:54:40;3.50;;;1.17;;
21326;SDS011;10822;51.532;6.770;2023-03-11T13:07:46;2.35;;;0.80;;
21326;SDS011;10822;51.532;6.770;2023-03-11T13:10:17;2.30;;;1.33;;
21326;SDS011;10822;51.532;6.770;2023-03-11T13:12:46;2.63;;;1.67;;
21326;SDS011;10822;51.532;6.770;2023-03-11T13:18:13;2.95;;;1.05;;
21326;SDS011;10822;51.532;6.770;2023-03-11T13:25:39;4.47;;;1.52;;
21326;SDS011;10822;51.532;6.770;2023-03-11T13:39:01;1.00;;;0.63;;
21326;SDS011;10822;51.532;6.770;2023-03-11T13:41:33;3.03;;;0.90;;
21326;SDS011;10822;51.532;6.770;2023-03-11T13:44:04;4.82;;;0.80;;
21326;SDS011;10822;51.532;6.770;2023-03-11T13:46:36;3.20;;;1.00;;
21326;SDS011;10822;51.532;6.770;2023-03-11T13:51:48;3.33;;;0.95;;
21326;SDS011;10822;51.532;6.770;2023-03-11T13:56:53;2.72;;;1.10;;
21326;SDS011;10822;51.532;6.770;2023-03-11T13:59:26;3.72;;;1.10;;
21326;SDS011;10822;51.532;6.770;2023-03-11T14:01:53;5.80;;;1.80;;
21326;SDS011;10822;51.532;6.770;2023-03-11T14:04:25;5.40;;;1.50;;
21326;SDS011;10822;51.532;6.770;2023-03-11T14:06:52;2.38;;;0.88;;
21326;SDS011;10822;51.532;6.770;2023-03-11T14:09:18;1.58;;;0.65;;
21326;SDS011;10822;51.532;6.770;2023-03-11T14:11:44;4.53;;;1.00;;
21326;SDS011;10822;51.532;6.770;2023-03-11T14:14:33;4.22;;;1.10;;
21326;SDS011;10822;51.532;6.770;2023-03-11T14:17:00;3.92;;;1.13;;
21326;SDS011;10822;51.532;6.770;2023-03-11T14:19:28;2.47;;;1.00;;
21326;SDS011;10822;51.532;6.770;2023-03-11T14:21:54;3.22;;;1.15;;
21326;SDS011;10822;51.532;6.770;2023-03-11T14:24:29;3.42;;;0.98;;
21326;SDS011;10822;51.532;6.770;2023-03-11T14:26:56;4.40;;;1.20;;
21326;SDS011;10822;51.532;6.770;2023-03-11T14:29:32;2.22;;;0.90;;
21326;SDS011;10822;51.532;6.770;2023-03-11T14:31:59;3.83;;;1.40;;
21326;SDS011;10822;51.532;6.770;2023-03-11T14:34:26;1.80;;;0.75;;
21326;SDS011;10822;51.532;6.770;2023-03-11T14:39:25;4.13;;;0.90;;
21326;SDS011;10822;51.532;6.770;2023-03-11T14:41:52;3.55;;;1.00;;
21326;SDS011;10822;51.532;6.770;2023-03-11T14:44:20;2.95;;;1.05;;
21326;SDS011;10822;51.532;6.770;2023-03-11T14:46:47;4.25;;;0.80;;
21326;SDS011;10822;51.532;6.770;2023-03-11T14:49:20;2.58;;;0.90;;
21326;SDS011;10822;51.532;6.770;2023-03-11T14:51:54;2.30;;;0.80;;
21326;SDS011;10822;51.532;6.770;2023-03-11T14:54:22;4.03;;;0.57;;
21326;SDS011;10822;51.532;6.770;2023-03-11T14:56:51;1.90;;;0.77;;
21326;SDS011;10822;51.532;6.770;2023-03-11T14:59:24;2.55;;;0.70;;
21326;SDS011;10822;51.532;6.770;2023-03-11T15:01:51;2.60;;;0.68;;
21326;SDS011;10822;51.532;6.770;2023-03-11T15:06:47;1.50;;;0.50;;
21326;SDS011;10822;51.532;6.770;2023-03-11T15:09:14;3.58;;;0.88;;
21326;SDS011;10822;51.532;6.770;2023-03-11T15:11:45;3.08;;;0.63;;
21326;SDS011;10822;51.532;6.770;2023-03-11T15:14:25;2.13;;;0.77;;
21326;SDS011;10822;51.532;6.770;2023-03-11T15:16:52;2.72;;;1.10;;
21326;SDS011;10822;51.532;6.770;2023-03-11T15:21:54;2.47;;;0.70;;
21326;SDS011;10822;51.532;6.770;2023-03-11T15:24:31;2.72;;;1.00;;
21326;SDS011;10822;51.532;6.770;2023-03-11T15:29:24;3.30;;;1.00;;
21326;SDS011;10822;51.532;6.770;2023-03-11T15:31:51;4.35;;;1.20;;
21326;SDS011;10822;51.532;6.770;2023-03-11T15:41:41;1.92;;;1.00;;
21326;SDS011;10822;51.532;6.770;2023-03-11T15:44:19;7.15;;;1.10;;
21326;SDS011;10822;51.532;6.770;2023-03-11T15:46:46;2.72;;;0.90;;
21326;SDS011;10822;51.532;6.770;2023-03-11T15:49:12;1.73;;;1.00;;
21326;SDS011;10822;51.532;6.770;2023-03-11T15:51:38;7.80;;;2.28;;
21326;SDS011;10822;51.532;6.770;2023-03-11T15:54:04;2.78;;;1.52;;
21326;SDS011;10822;51.532;6.770;2023-03-11T15:56:30;6.93;;;2.03;;
21326;SDS011;10822;51.532;6.770;2023-03-11T15:58:57;5.88;;;3.25;;
21326;SDS011;10822;51.532;6.770;2023-03-11T16:01:23;13.95;;;6.90;;
21326;SDS011;10822;51.532;6.770;2023-03-11T16:03:52;8.68;;;3.90;;
21326;SDS011;10822;51.532;6.770;2023-03-11T16:06:18;3.67;;;1.60;;
21326;SDS011;10822;51.532;6.770;2023-03-11T16:08:46;2.17;;;1.40;;
21326;SDS011;10822;51.532;6.770;2023-03-11T16:11:12;5.65;;;1.75;;
21326;SDS011;10822;51.532;6.770;2023-03-11T16:13:38;9.77;;;4.10;;
21326;SDS011;10822;51.532;6.770;2023-03-11T16:16:05;5.50;;;2.67;;
21326;SDS011;10822;51.532;6.770;2023-03-11T16:18:31;3.30;;;1.48;;
21326;SDS011;10822;51.532;6.770;2023-03-11T16:20:59;6.30;;;1.50;;
21326;SDS011;10822;51.532;6.770;2023-03-11T16:23:32;2.80;;;0.93;;
21326;SDS011;10822;51.532;6.770;2023-03-11T16:26:01;4.35;;;1.63;;